Time;durP1;ratioP1;P1;durP2;ratioP2;P2;SDS_P1;SDS_P2;PMS_P1;PMS_P2;Temp;Humidity;BMP_temperature;BMP_pressure;BME280_temperature;BME280_humidity;BME280_pressure;Samples;Min_cycle;Max_cycle;Signal;HPM_P1;HPM_P2
2023/05/02 22:22:38;;;;;;;7.45;2.80;;;7.20;99.90;;;;;;4906926;23;20568;-61
2023/05/02 22:25:06;;;;;;;7.35;2.70;;;7.20;99.90;;;;;;4968364;28;20054;-61
2023/05/02 22:27:33;;;;;;;5.20;2.72;;;7.20;99.90;;;;;;4978637;28;20042;-60
2023/05/02 22:29:59;;;;;;;5.38;2.70;;;7.10;99.90;;;;;;4982627;28;20109;-61
2023/05/02 22:32:26;;;;;;;7.43;2.97;;;7.00;99.90;;;;;;4970163;28;20042;-60
2023/05/02 22:34:53;;;;;;;3.97;2.45;;;6.90;99.90;;;;;;4985384;28;20454;-61
2023/05/02 22:37:20;;;;;;;5.85;2.92;;;6.90;99.90;;;;;;4977618;28;20050;-62
2023/05/02 22:39:48;;;;;;;4.35;2.22;;;6.80;99.90;;;;;;4973093;28;20046;-62
2023/05/02 22:42:15;;;;;;;3.72;2.15;;;6.80;99.90;;;;;;4968807;28;20059;-61
2023/05/02 22:44:42;;;;;;;6.75;2.35;;;6.70;99.90;;;;;;4966211;28;20089;-62
2023/05/02 22:47:09;;;;;;;4.47;2.30;;;6.70;99.90;;;;;;4966425;28;20557;-61
2023/05/02 22:49:37;;;;;;;6.32;2.78;;;6.70;99.90;;;;;;4960876;28;20055;-61
2023/05/02 22:52:04;;;;;;;4.22;2.15;;;6.60;99.90;;;;;;4962107;28;20053;-60
2023/05/02 22:54:31;;;;;;;5.75;2.17;;;6.60;99.90;;;;;;4975209;28;20446;-60
2023/05/02 22:56:59;;;;;;;4.57;2.17;;;6.60;99.90;;;;;;4973638;28;20055;-62
2023/05/02 22:59:26;;;;;;;3.78;2.08;;;6.50;99.90;;;;;;4972250;28;20054;-61
2023/05/02 23:01:53;;;;;;;4.88;2.00;;;6.50;99.90;;;;;;4972640;28;20047;-61
2023/05/02 23:04:20;;;;;;;3.38;1.98;;;6.50;99.90;;;;;;4988549;28;20470;-61
2023/05/02 23:06:47;;;;;;;6.32;2.42;;;6.30;99.90;;;;;;4978773;28;20069;-61
2023/05/02 23:09:14;;;;;;;4.90;2.60;;;6.30;99.90;;;;;;4970628;28;20101;-60
2023/05/02 23:11:40;;;;;;;4.95;2.30;;;6.20;99.90;;;;;;4958868;28;20225;-62
2023/05/02 23:14:09;;;;;;;5.25;2.38;;;6.20;99.90;;;;;;4972876;28;20094;-61
2023/05/02 23:16:35;;;;;;;7.78;2.83;;;6.10;99.90;;;;;;4974188;28;20055;-61
2023/05/02 23:19:02;;;;;;;7.35;2.75;;;6.00;99.90;;;;;;4972256;28;20499;-61
2023/05/02 23:21:29;;;;;;;8.85;3.25;;;6.00;99.90;;;;;;4956880;28;20641;-60
2023/05/02 23:23:56;;;;;;;7.18;2.88;;;5.90;99.90;;;;;;4968997;28;20183;-61
2023/05/02 23:26:23;;;;;;;6.55;2.92;;;5.80;99.90;;;;;;4982627;28;20105;-61
2023/05/02 23:28:50;;;;;;;4.40;2.70;;;5.80;99.90;;;;;;4968563;28;20070;-61
2023/05/02 23:31:18;;;;;;;7.30;2.80;;;5.70;99.90;;;;;;4972631;28;20054;-61
2023/05/02 23:33:45;;;;;;;8.18;3.22;;;5.60;99.90;;;;;;4989580;28;20051;-61
2023/05/02 23:36:12;;;;;;;6.70;3.75;;;5.60;99.90;;;;;;4990278;28;20058;-62
2023/05/02 23:38:40;;;;;;;5.82;3.22;;;5.50;99.90;;;;;;4993043;28;20407;-61
2023/05/02 23:41:07;;;;;;;5.57;3.22;;;5.50;99.90;;;;;;4977234;28;20081;-61
2023/05/02 23:43:34;;;;;;;7.53;3.65;;;5.40;99.90;;;;;;4986257;28;20050;-61
2023/05/02 23:46:01;;;;;;;5.72;3.13;;;5.40;99.90;;;;;;4975511;28;20434;-61
2023/05/02 23:48:29;;;;;;;5.47;3.10;;;5.40;99.90;;;;;;4959743;28;20055;-61
2023/05/02 23:50:56;;;;;;;7.22;3.45;;;5.40;99.90;;;;;;4992117;28;20042;-60
2023/05/02 23:53:23;;;;;;;6.30;3.00;;;5.40;99.90;;;;;;4976327;28;20058;-61
2023/05/02 23:55:50;;;;;;;6.88;3.35;;;5.40;99.90;;;;;;4975872;28;20081;-62
2023/05/02 23:58:17;;;;;;;6.55;3.45;;;5.40;99.90;;;;;;4975988;28;20621;-60
